Time;durP1;ratioP1;P1;durP2;ratioP2;P2;SDS_P1;SDS_P2;PMS_P1;PMS_P2;Temp;Humidity;BMP_temperature;BMP_pressure;BME280_temperature;BME280_humidity;BME280_pressure;Samples;Min_cycle;Max_cycle;Signal;HPM_P1;HPM_P2
2022/09/28 00:02:14;;;;;;;1.07;1.00;;;10.10;97.30;;;;;;4993179;28;20182;-92
2022/09/28 00:04:40;;;;;;;0.90;0.80;;;9.90;97.30;;;;;;4993401;28;20193;-92
2022/09/28 00:07:05;;;;;;;1.47;1.37;;;9.70;97.30;;;;;;4992244;28;20460;-92
2022/09/28 00:09:30;;;;;;;1.20;1.10;;;9.60;97.30;;;;;;4987055;28;20298;-92
2022/09/28 00:11:56;;;;;;;1.20;1.10;;;9.50;97.30;;;;;;5001643;28;20201;-92
2022/09/28 00:14:22;;;;;;;1.10;1.00;;;9.40;97.30;;;;;;4978562;28;20574;-91
2022/09/28 00:16:50;;;;;;;1.20;1.10;;;9.40;97.30;;;;;;4991769;28;20241;-90
2022/09/28 00:19:16;;;;;;;1.50;1.40;;;9.30;97.30;;;;;;4992387;28;20460;-92
2022/09/28 00:21:42;;;;;;;1.10;1.00;;;9.20;97.30;;;;;;4987912;28;20952;-91
2022/09/28 00:24:11;;;;;;;1.27;1.17;;;9.20;97.30;;;;;;4987334;28;20178;-91
2022/09/28 00:26:49;;;;;;;1.10;1.00;;;9.10;97.30;;;;;;4990894;28;20747;-92
2022/09/28 00:29:27;;;;;;;1.33;1.30;;;9.10;97.30;;;;;;4992477;28;20428;-92
2022/09/28 00:32:01;;;;;;;1.10;1.00;;;9.00;97.30;;;;;;4998458;28;20800;-91
2022/09/28 00:34:28;;;;;;;1.13;1.03;;;9.00;97.30;;;;;;4985732;28;20414;-92
2022/09/28 00:36:54;;;;;;;1.10;1.00;;;8.90;97.30;;;;;;4992790;28;20460;-92
2022/09/28 00:39:20;;;;;;;1.67;1.57;;;8.90;97.30;;;;;;4997409;28;20428;-91
2022/09/28 00:41:45;;;;;;;1.37;1.27;;;8.90;97.30;;;;;;4998066;28;20185;-92
2022/09/28 00:44:23;;;;;;;1.10;1.00;;;8.90;97.30;;;;;;5000852;28;20417;-92
2022/09/28 00:46:52;;;;;;;1.07;0.97;;;8.90;97.30;;;;;;5000486;28;20217;-92
2022/09/28 00:49:20;;;;;;;1.23;1.13;;;8.90;97.30;;;;;;5005463;28;20429;-91
2022/09/28 00:51:47;;;;;;;1.53;1.47;;;8.80;97.30;;;;;;4991839;28;20484;-91
2022/09/28 00:54:14;;;;;;;1.37;1.27;;;8.80;97.30;;;;;;5007978;28;20417;-91
2022/09/28 00:56:44;;;;;;;1.30;1.20;;;8.80;97.30;;;;;;4992261;28;20449;-91
2022/09/28 00:59:09;;;;;;;2.33;2.13;;;8.80;97.30;;;;;;5006643;28;20463;-92
2022/09/28 01:01:36;;;;;;;1.13;1.03;;;8.80;97.30;;;;;;4992037;28;20485;-92
2022/09/28 01:04:02;;;;;;;1.33;1.23;;;8.80;97.30;;;;;;4992253;28;20186;-91
2022/09/28 01:06:32;;;;;;;1.30;1.20;;;8.80;97.30;;;;;;4999250;28;20493;-91
2022/09/28 01:09:01;;;;;;;1.37;1.27;;;8.80;97.30;;;;;;4991248;28;20417;-91
2022/09/28 01:11:37;;;;;;;2.23;2.03;;;8.70;97.30;;;;;;4979920;28;20421;-92
2022/09/28 01:14:04;;;;;;;1.10;1.00;;;8.60;97.30;;;;;;4980290;28;20417;-91
2022/09/28 01:16:54;;;;;;;1.10;1.00;;;8.60;97.30;;;;;;4992577;28;20575;-91
2022/09/28 01:19:35;;;;;;;1.43;1.40;;;8.60;97.30;;;;;;4983339;28;20421;-91
2022/09/28 01:22:34;;;;;;;1.20;1.10;;;8.60;97.30;;;;;;4989203;28;21072;-91
2022/09/28 01:25:10;;;;;;;1.60;1.50;;;8.50;97.30;;;;;;4989207;28;20440;-91
2022/09/28 01:27:40;;;;;;;1.23;1.13;;;8.50;97.30;;;;;;4991913;28;20460;-91
2022/09/28 01:30:15;;;;;;;1.30;1.20;;;8.50;97.30;;;;;;4983220;28;20800;-91
2022/09/28 01:33:19;;;;;;;1.00;0.90;;;8.50;97.30;;;;;;4984465;28;20423;-91
2022/09/28 01:36:06;;;;;;;1.30;1.20;;;8.50;97.30;;;;;;4997716;28;20437;-91
2022/09/28 01:38:47;;;;;;;1.27;1.17;;;8.50;97.30;;;;;;4990835;28;20456;-90
2022/09/28 01:41:16;;;;;;;1.33;1.10;;;8.40;97.30;;;;;;4994661;28;20432;-91
2022/09/28 01:43:47;;;;;;;1.17;1.13;;;8.40;97.30;;;;;;4991019;28;20417;-90
2022/09/28 01:46:19;;;;;;;0.90;0.80;;;8.40;97.30;;;;;;5001754;28;20987;-89
2022/09/28 01:48:56;;;;;;;1.57;1.50;;;8.30;97.30;;;;;;4991979;28;20435;-91
2022/09/28 01:51:39;;;;;;;1.20;1.10;;;8.30;97.30;;;;;;4990600;28;20985;-91
2022/09/28 01:54:13;;;;;;;1.47;1.10;;;8.20;97.30;;;;;;4970911;28;20512;-90
2022/09/28 01:56:44;;;;;;;1.23;1.13;;;8.20;97.30;;;;;;4983894;28;20449;-91
2022/09/28 01:59:20;;;;;;;1.00;0.90;;;8.20;97.30;;;;;;4993748;28;20449;-91
2022/09/28 02:01:54;;;;;;;1.47;1.37;;;8.20;97.30;;;;;;4999997;28;20452;-91
2022/09/28 02:04:33;;;;;;;1.23;1.13;;;8.10;97.30;;;;;;4971000;28;20426;-91
2022/09/28 02:07:14;;;;;;;1.20;1.10;;;8.10;97.30;;;;;;4988396;28;20639;-90
2022/09/28 02:09:47;;;;;;;1.10;1.00;;;8.00;97.30;;;;;;5000342;28;20448;-92
2022/09/28 02:12:23;;;;;;;1.20;1.10;;;8.00;97.30;;;;;;4978488;28;20425;-91
2022/09/28 02:14:53;;;;;;;1.60;1.50;;;8.00;97.30;;;;;;4989208;28;20449;-91
2022/09/28 02:17:19;;;;;;;2.70;1.73;;;8.00;97.30;;;;;;4987652;28;20758;-91
2022/09/28 02:19:45;;;;;;;1.73;1.63;;;8.00;97.30;;;;;;4986621;28;20425;-91
2022/09/28 02:22:22;;;;;;;1.17;1.07;;;8.00;97.30;;;;;;4987582;28;20190;-91
2022/09/28 02:25:07;;;;;;;1.20;1.10;;;8.00;97.30;;;;;;4985358;28;20441;-91
2022/09/28 02:27:43;;;;;;;1.13;1.03;;;8.00;97.30;;;;;;4995737;28;20457;-91
2022/09/28 02:30:10;;;;;;;1.30;1.20;;;7.90;97.30;;;;;;4996329;28;20432;-91
2022/09/28 02:32:41;;;;;;;1.30;1.20;;;7.90;97.30;;;;;;4990028;28;20457;-91
2022/09/28 02:35:10;;;;;;;1.30;1.20;;;7.90;97.30;;;;;;5000845;28;20914;-91
2022/09/28 02:37:39;;;;;;;1.00;0.90;;;7.90;97.30;;;;;;4989463;28;20741;-91
2022/09/28 02:40:27;;;;;;;1.73;1.43;;;7.80;97.30;;;;;;4981018;28;20422;-91
2022/09/28 02:43:10;;;;;;;1.17;0.90;;;7.80;97.30;;;;;;4999905;28;20426;-91
2022/09/28 02:46:15;;;;;;;1.10;1.00;;;7.80;97.30;;;;;;4985404;28;20446;-92
2022/09/28 02:49:08;;;;;;;1.00;0.90;;;7.80;97.30;;;;;;4990880;28;20456;-91
2022/09/28 02:51:49;;;;;;;1.00;0.90;;;7.80;97.30;;;;;;4981436;28;20417;-91
2022/09/28 02:54:24;;;;;;;1.60;1.50;;;7.70;97.30;;;;;;4970807;28;20414;-91
2022/09/28 02:57:05;;;;;;;1.93;1.10;;;7.70;97.30;;;;;;5000062;28;20448;-91
2022/09/28 02:59:47;;;;;;;1.07;0.97;;;7.60;97.30;;;;;;4980463;28;20861;-91
2022/09/28 03:02:39;;;;;;;1.00;0.90;;;7.60;97.30;;;;;;4987509;28;20967;-93
2022/09/28 03:05:22;;;;;;;1.20;1.10;;;7.50;97.30;;;;;;4988675;28;20432;-91
2022/09/28 03:08:02;;;;;;;1.20;1.10;;;7.50;97.30;;;;;;4989535;28;21004;-92
2022/09/28 03:10:34;;;;;;;1.10;1.00;;;7.50;97.30;;;;;;4989753;28;20412;-92
2022/09/28 03:13:01;;;;;;;1.10;1.00;;;7.40;97.30;;;;;;4989476;28;20451;-91
2022/09/28 03:15:29;;;;;;;1.17;1.07;;;7.30;97.30;;;;;;4981996;28;20443;-91
2022/09/28 03:17:56;;;;;;;0.80;0.80;;;7.30;97.30;;;;;;4989002;28;20881;-91
2022/09/28 03:20:21;;;;;;;1.83;1.73;;;7.20;97.30;;;;;;4978815;28;20432;-91
2022/09/28 03:22:47;;;;;;;1.10;1.00;;;7.20;97.30;;;;;;4989662;28;20427;-91
2022/09/28 03:25:14;;;;;;;1.40;1.30;;;7.20;97.30;;;;;;4982597;28;20577;-91
2022/09/28 03:27:40;;;;;;;1.30;1.20;;;7.20;97.30;;;;;;4987965;28;20209;-92
2022/09/28 03:30:06;;;;;;;1.20;1.10;;;7.20;97.30;;;;;;4997795;28;20417;-91
2022/09/28 03:32:32;;;;;;;1.10;1.00;;;7.20;97.30;;;;;;4993401;28;20838;-91
2022/09/28 03:34:59;;;;;;;1.07;0.97;;;7.20;97.30;;;;;;4993221;28;20499;-92
2022/09/28 03:37:26;;;;;;;1.07;0.97;;;7.20;97.30;;;;;;5008051;28;20728;-91
2022/09/28 03:39:51;;;;;;;1.10;1.00;;;7.20;97.30;;;;;;4985892;28;20435;-92
2022/09/28 03:42:17;;;;;;;2.63;1.10;;;7.30;97.30;;;;;;4979969;28;20425;-91
2022/09/28 03:44:42;;;;;;;1.10;1.00;;;7.30;97.30;;;;;;4994233;28;20220;-91
2022/09/28 03:47:08;;;;;;;2.30;1.03;;;7.30;97.30;;;;;;4993259;28;20301;-92
2022/09/28 03:49:34;;;;;;;2.30;2.10;;;7.30;97.30;;;;;;4994175;28;20264;-91
2022/09/28 03:52:03;;;;;;;1.20;1.10;;;7.30;97.30;;;;;;4994702;28;20182;-91
2022/09/28 03:54:28;;;;;;;1.27;1.17;;;7.30;97.30;;;;;;4989725;28;20669;-90
2022/09/28 03:56:54;;;;;;;1.40;1.33;;;7.30;97.30;;;;;;4992538;28;20437;-91
2022/09/28 03:59:19;;;;;;;1.87;1.27;;;7.30;97.30;;;;;;4998889;28;20178;-91
2022/09/28 04:01:48;;;;;;;1.97;1.87;;;7.30;97.30;;;;;;4991879;28;20201;-91
2022/09/28 04:04:14;;;;;;;1.47;1.40;;;7.30;97.30;;;;;;4991483;28;20192;-91
2022/09/28 04:06:42;;;;;;;1.77;1.67;;;7.30;97.30;;;;;;4988695;28;20548;-94
2022/09/28 04:09:15;;;;;;;1.10;1.00;;;7.30;97.30;;;;;;4992985;28;20182;-92
2022/09/28 04:11:40;;;;;;;1.20;1.10;;;7.30;97.30;;;;;;4990219;28;20417;-92
2022/09/28 04:14:08;;;;;;;1.20;1.10;;;7.30;97.30;;;;;;4993231;28;20451;-92
2022/09/28 04:16:34;;;;;;;1.30;1.20;;;7.30;97.30;;;;;;4991903;28;20631;-90
2022/09/28 04:19:03;;;;;;;1.30;1.20;;;7.40;97.30;;;;;;4990280;28;20430;-91
2022/09/28 04:21:31;;;;;;;1.30;1.20;;;7.40;97.30;;;;;;4990237;28;20193;-93
2022/09/28 04:24:04;;;;;;;1.40;1.30;;;7.40;97.30;;;;;;4991464;28;20427;-92
2022/09/28 04:26:32;;;;;;;1.20;1.10;;;7.40;97.30;;;;;;4991701;28;20452;-91
2022/09/28 04:29:16;;;;;;;1.30;1.20;;;7.40;97.30;;;;;;4991379;28;20486;-92
2022/09/28 04:31:46;;;;;;;3.63;1.50;;;7.50;97.30;;;;;;4992485;28;20417;-90
2022/09/28 04:34:13;;;;;;;1.07;0.97;;;7.50;97.30;;;;;;4991319;28;20436;-91
2022/09/28 04:36:44;;;;;;;1.37;1.30;;;7.50;97.30;;;;;;4991789;28;20531;-87
2022/09/28 04:39:15;;;;;;;1.20;1.10;;;7.50;97.30;;;;;;4990254;28;20520;-91
2022/09/28 04:41:41;;;;;;;2.23;2.03;;;7.50;97.30;;;;;;4990525;28;20433;-91
2022/09/28 04:44:09;;;;;;;1.20;1.10;;;7.50;97.30;;;;;;4989773;28;20425;-90
2022/09/28 04:46:34;;;;;;;1.53;1.50;;;7.50;97.30;;;;;;4987959;28;20305;-91
2022/09/28 04:49:01;;;;;;;1.30;1.20;;;7.50;97.30;;;;;;4997569;28;21079;-92
2022/09/28 04:51:30;;;;;;;1.83;1.73;;;7.50;97.30;;;;;;4991589;28;20205;-91
2022/09/28 04:53:56;;;;;;;1.13;1.03;;;7.50;97.30;;;;;;4985768;28;20560;-93
2022/09/28 04:56:21;;;;;;;1.20;1.10;;;7.50;97.30;;;;;;4990156;28;20531;-91
2022/09/28 04:58:46;;;;;;;2.57;2.30;;;7.50;97.30;;;;;;4986037;28;20174;-92
2022/09/28 05:01:17;;;;;;;1.20;1.10;;;7.60;97.30;;;;;;4991893;28;20187;-91
2022/09/28 05:03:43;;;;;;;1.20;1.10;;;7.60;97.30;;;;;;4985500;28;20197;-91
2022/09/28 05:06:14;;;;;;;1.10;1.00;;;7.60;97.30;;;;;;4999501;28;20452;-90
2022/09/28 05:08:39;;;;;;;1.30;1.20;;;7.60;97.30;;;;;;4975944;28;20426;-91
2022/09/28 05:11:07;;;;;;;2.00;1.90;;;7.70;97.30;;;;;;4996617;28;20417;-91
2022/09/28 05:13:40;;;;;;;3.87;1.20;;;7.70;97.30;;;;;;4982952;28;20185;-91
2022/09/28 05:16:08;;;;;;;2.00;1.80;;;7.70;97.30;;;;;;4991050;28;20452;-91
2022/09/28 05:18:34;;;;;;;1.30;1.20;;;7.70;97.30;;;;;;4993122;28;20436;-91
2022/09/28 05:21:00;;;;;;;1.30;1.20;;;7.70;97.30;;;;;;4986886;28;20808;-90
2022/09/28 05:23:26;;;;;;;1.20;1.10;;;7.70;97.30;;;;;;4985274;28;20186;-91
2022/09/28 05:25:51;;;;;;;1.90;1.47;;;7.70;97.30;;;;;;4979675;28;21088;-91
2022/09/28 05:28:26;;;;;;;5.77;1.30;;;7.70;97.30;;;;;;4995909;28;20201;-91
2022/09/28 05:30:52;;;;;;;1.57;1.47;;;7.70;97.30;;;;;;5002154;28;20177;-91
2022/09/28 05:33:17;;;;;;;1.63;1.20;;;7.70;97.30;;;;;;4992321;28;20428;-91
2022/09/28 05:35:43;;;;;;;1.43;1.37;;;7.70;97.30;;;;;;4991883;28;20202;-91
2022/09/28 05:38:08;;;;;;;1.70;1.57;;;7.80;97.30;;;;;;4989994;28;20233;-90
2022/09/28 05:40:34;;;;;;;2.80;1.57;;;7.80;97.30;;;;;;4994396;28;20190;-90
2022/09/28 05:43:01;;;;;;;1.40;1.30;;;7.80;97.30;;;;;;4990702;28;20186;-91
2022/09/28 05:45:27;;;;;;;1.30;1.27;;;7.80;97.30;;;;;;4990491;28;20247;-91
2022/09/28 05:47:53;;;;;;;1.13;1.10;;;7.80;97.30;;;;;;4990942;28;20426;-91
2022/09/28 05:50:18;;;;;;;3.13;1.90;;;7.90;97.30;;;;;;4990215;28;20943;-91
2022/09/28 05:52:44;;;;;;;1.17;1.07;;;7.90;97.30;;;;;;4978382;28;20178;-91
2022/09/28 05:55:10;;;;;;;1.20;1.10;;;7.90;97.30;;;;;;4989912;28;20198;-91
2022/09/28 05:57:35;;;;;;;1.40;1.30;;;7.90;97.30;;;;;;4978422;28;20185;-91
2022/09/28 06:00:11;;;;;;;1.30;1.20;;;7.90;97.30;;;;;;5000980;28;20193;-91
2022/09/28 06:02:43;;;;;;;1.87;1.30;;;8.00;97.30;;;;;;4995789;28;20272;-90
2022/09/28 06:05:11;;;;;;;1.30;1.20;;;8.00;97.30;;;;;;4987166;28;20848;-91
2022/09/28 06:07:39;;;;;;;2.17;1.23;;;8.00;97.30;;;;;;4987433;28;20856;-91
2022/09/28 06:10:05;;;;;;;1.20;1.10;;;8.00;97.30;;;;;;4987430;28;20950;-91
2022/09/28 06:12:32;;;;;;;4.60;2.90;;;8.00;97.30;;;;;;4989960;28;20512;-91
2022/09/28 06:15:00;;;;;;;1.57;1.53;;;8.00;97.30;;;;;;5003270;28;20591;-92
2022/09/28 06:17:32;;;;;;;1.57;1.30;;;8.10;97.30;;;;;;4981675;28;20431;-91
2022/09/28 06:20:04;;;;;;;1.60;1.50;;;8.10;97.30;;;;;;4989828;28;20494;-91
2022/09/28 06:22:32;;;;;;;1.50;1.37;;;8.10;97.30;;;;;;4990516;28;20955;-91
2022/09/28 06:25:32;;;;;;;1.20;1.20;;;8.10;97.30;;;;;;5006301;28;20478;-91
2022/09/28 06:28:14;;;;;;;1.00;0.90;;;8.20;97.30;;;;;;4990372;28;20519;-91
2022/09/28 06:31:34;;;;;;;1.70;1.60;;;8.20;97.30;;;;;;4989751;28;20445;-89
2022/09/28 06:34:34;;;;;;;1.47;1.37;;;8.20;97.30;;;;;;4931070;28;20416;-89
2022/09/28 06:40:14;;;;;;;1.60;1.30;;;8.20;97.30;;;;;;4941085;28;20426;-91
2022/09/28 06:43:35;;;;;;;1.73;1.57;;;8.20;97.30;;;;;;4987863;28;20959;-92
2022/09/28 06:46:24;;;;;;;1.40;1.30;;;8.30;97.30;;;;;;4969531;28;20455;-91
2022/09/28 06:49:25;;;;;;;1.27;1.17;;;8.30;97.30;;;;;;5001354;28;20433;-90
2022/09/28 06:51:55;;;;;;;1.60;1.50;;;8.30;97.30;;;;;;4989866;28;20511;-88
2022/09/28 06:54:24;;;;;;;1.23;1.17;;;8.30;97.30;;;;;;4989806;28;20511;-90
2022/09/28 06:57:23;;;;;;;1.60;1.50;;;8.30;97.30;;;;;;5074191;22;20987;-89
2022/09/28 07:00:24;;;;;;;1.80;1.70;;;8.30;97.30;;;;;;5061820;28;20455;-91
2022/09/28 07:02:53;;;;;;;1.50;1.40;;;8.30;97.30;;;;;;5076618;28;20451;-91
2022/09/28 07:05:25;;;;;;;3.37;2.03;;;8.40;97.30;;;;;;5072959;28;20430;-91
2022/09/28 07:07:54;;;;;;;1.07;0.93;;;8.40;97.30;;;;;;5072386;28;20479;-90
2022/09/28 07:10:26;;;;;;;1.90;1.37;;;8.40;97.30;;;;;;5059108;28;20409;-91
2022/09/28 07:12:53;;;;;;;2.93;2.10;;;8.40;97.30;;;;;;5072728;28;20767;-91
2022/09/28 07:15:19;;;;;;;1.27;1.10;;;8.40;97.30;;;;;;5068594;28;20426;-91
2022/09/28 07:17:45;;;;;;;2.30;1.73;;;8.40;97.30;;;;;;5072646;28;20436;-91
2022/09/28 07:20:11;;;;;;;1.70;1.60;;;8.50;97.30;;;;;;5058733;28;20441;-91
2022/09/28 07:22:38;;;;;;;2.80;1.80;;;8.50;97.30;;;;;;5060077;28;20191;-91
2022/09/28 07:25:05;;;;;;;2.80;2.03;;;8.50;97.30;;;;;;5059402;28;20425;-92
2022/09/28 07:27:31;;;;;;;2.67;2.17;;;8.50;97.30;;;;;;5058619;28;20449;-91
2022/09/28 07:29:59;;;;;;;2.47;2.27;;;8.50;97.30;;;;;;5065762;28;20493;-91
2022/09/28 07:32:26;;;;;;;3.00;1.53;;;8.50;97.30;;;;;;5052996;28;20422;-92
2022/09/28 07:34:52;;;;;;;2.27;2.07;;;8.60;97.30;;;;;;5060558;28;20409;-90
2022/09/28 07:37:19;;;;;;;1.83;1.73;;;8.60;97.30;;;;;;5072307;28;20938;-91
2022/09/28 07:42:29;;;;;;;2.80;2.13;;;8.60;97.30;;;;;;5073847;28;20417;-91
2022/09/28 07:44:58;;;;;;;4.37;2.73;;;8.60;97.30;;;;;;5062054;28;20449;-91
2022/09/28 07:47:28;;;;;;;1.70;1.60;;;8.60;97.30;;;;;;5068253;28;20761;-91
2022/09/28 07:49:56;;;;;;;1.20;1.10;;;8.70;97.30;;;;;;5062405;28;20700;-91
2022/09/28 07:52:25;;;;;;;2.90;1.73;;;8.70;97.30;;;;;;5068151;28;20430;-91
2022/09/28 07:54:52;;;;;;;1.60;1.53;;;8.70;97.30;;;;;;5071185;28;20931;-91
2022/09/28 07:57:19;;;;;;;2.50;2.03;;;8.70;97.30;;;;;;5066503;28;20553;-91
2022/09/28 07:59:45;;;;;;;1.30;1.10;;;8.80;97.30;;;;;;5064283;28;20417;-91
2022/09/28 08:02:11;;;;;;;1.50;1.40;;;8.80;97.30;;;;;;5072375;28;20801;-91
2022/09/28 08:04:37;;;;;;;2.00;1.30;;;8.80;97.30;;;;;;5061003;28;20192;-91
2022/09/28 08:07:02;;;;;;;5.57;2.33;;;8.90;97.30;;;;;;5070367;28;20521;-91
2022/09/28 08:09:31;;;;;;;1.67;1.23;;;8.90;97.30;;;;;;5080227;28;20175;-91
2022/09/28 08:11:58;;;;;;;3.73;1.63;;;8.90;97.30;;;;;;5072662;28;20171;-91
2022/09/28 08:14:23;;;;;;;4.77;2.13;;;8.90;97.30;;;;;;5072666;28;20531;-92
2022/09/28 08:16:49;;;;;;;1.43;1.37;;;8.90;97.30;;;;;;5064541;28;20463;-92
2022/09/28 08:19:14;;;;;;;4.30;2.10;;;8.90;97.30;;;;;;5064632;28;20179;-92
2022/09/28 08:21:46;;;;;;;1.47;1.40;;;9.00;97.30;;;;;;5071875;28;20179;-92
2022/09/28 08:24:16;;;;;;;1.60;1.50;;;9.00;97.30;;;;;;5072617;28;20202;-92
2022/09/28 08:26:42;;;;;;;1.57;1.53;;;9.00;97.30;;;;;;5059825;28;20553;-91
2022/09/28 08:29:09;;;;;;;1.77;1.60;;;9.00;97.30;;;;;;5073443;28;20496;-91
2022/09/28 08:31:34;;;;;;;4.03;1.73;;;9.00;97.30;;;;;;5071536;28;20873;-92
2022/09/28 08:34:02;;;;;;;1.70;1.60;;;9.10;97.30;;;;;;5072166;28;20512;-90
2022/09/28 08:36:28;;;;;;;1.97;1.87;;;9.10;97.30;;;;;;5075733;28;20202;-91
2022/09/28 08:38:54;;;;;;;1.50;1.40;;;9.00;97.30;;;;;;5059001;28;20471;-90
2022/09/28 08:41:43;;;;;;;1.20;1.10;;;9.00;97.30;;;;;;5052659;28;20183;-92
2022/09/28 08:44:12;;;;;;;1.37;1.30;;;9.00;97.30;;;;;;5082034;28;20429;-91
2022/09/28 08:46:42;;;;;;;1.27;1.17;;;8.90;97.30;;;;;;5079068;28;20460;-92
2022/09/28 08:49:27;;;;;;;1.23;1.13;;;8.90;97.30;;;;;;5071904;28;20829;-91
2022/09/28 08:52:09;;;;;;;1.20;1.10;;;8.90;97.30;;;;;;5058549;28;20414;-89
2022/09/28 08:54:44;;;;;;;0.83;0.80;;;8.90;97.30;;;;;;5063171;28;20433;-91
2022/09/28 08:57:17;;;;;;;1.70;1.60;;;8.80;97.30;;;;;;5066546;28;20462;-91
2022/09/28 08:59:54;;;;;;;1.13;1.03;;;8.80;97.30;;;;;;5055928;28;20948;-92
2022/09/28 09:02:29;;;;;;;1.20;1.10;;;8.80;97.30;;;;;;5073711;28;20425;-93
2022/09/28 09:04:58;;;;;;;1.10;1.00;;;8.70;97.30;;;;;;5072639;28;20425;-92
2022/09/28 09:07:43;;;;;;;1.10;1.00;;;8.60;97.30;;;;;;5060544;28;20540;-91
2022/09/28 09:10:37;;;;;;;1.00;0.90;;;8.70;97.30;;;;;;5074462;28;20425;-91
2022/09/28 09:13:36;;;;;;;1.00;0.90;;;8.70;97.30;;;;;;5073100;28;20474;-91
2022/09/28 09:16:13;;;;;;;1.37;1.10;;;8.60;97.30;;;;;;5069251;28;20448;-91
2022/09/28 09:18:51;;;;;;;1.30;1.20;;;8.70;97.30;;;;;;5065335;28;20952;-91
2022/09/28 09:21:47;;;;;;;1.20;1.10;;;8.70;97.30;;;;;;5054455;28;20470;-91
2022/09/28 09:24:20;;;;;;;0.80;0.80;;;8.80;97.30;;;;;;5072112;28;20447;-91
2022/09/28 09:26:47;;;;;;;1.00;0.90;;;8.80;97.30;;;;;;5057138;28;20808;-91
2022/09/28 09:29:31;;;;;;;1.20;1.10;;;8.90;97.30;;;;;;5057817;28;20523;-92
2022/09/28 09:32:24;;;;;;;1.20;1.10;;;8.90;97.30;;;;;;5069805;28;20440;-91
2022/09/28 09:35:08;;;;;;;1.17;0.90;;;9.00;97.30;;;;;;5058214;28;20402;-91
2022/09/28 09:37:55;;;;;;;1.10;1.00;;;9.00;97.30;;;;;;5087830;28;20417;-90
2022/09/28 09:41:01;;;;;;;2.77;1.03;;;9.10;97.30;;;;;;5080039;28;20440;-91
2022/09/28 09:43:48;;;;;;;1.07;0.97;;;9.20;97.30;;;;;;5078683;28;20429;-91
2022/09/28 09:46:16;;;;;;;5.30;1.10;;;9.20;97.30;;;;;;5062441;28;20875;-92
2022/09/28 09:48:57;;;;;;;3.87;3.17;;;9.30;97.30;;;;;;5071396;28;20479;-93
2022/09/28 09:51:58;;;;;;;0.93;0.83;;;9.30;97.30;;;;;;5071653;28;20440;-91
2022/09/28 09:54:38;;;;;;;1.33;1.23;;;9.30;97.30;;;;;;5065605;28;20408;-92
2022/09/28 09:57:11;;;;;;;1.17;1.07;;;9.30;97.30;;;;;;5071296;28;20475;-92
2022/09/28 09:59:40;;;;;;;1.07;0.97;;;9.40;97.30;;;;;;5062852;28;20422;-91
2022/09/28 10:02:28;;;;;;;0.93;0.83;;;9.40;97.30;;;;;;5068622;28;20414;-91
2022/09/28 10:04:59;;;;;;;1.00;0.90;;;9.50;97.30;;;;;;5059310;28;20418;-90
2022/09/28 10:07:48;;;;;;;1.00;0.90;;;9.50;97.30;;;;;;5062326;28;20442;-92
2022/09/28 10:10:19;;;;;;;1.00;1.00;;;9.60;97.30;;;;;;5058308;28;20774;-91
2022/09/28 10:16:25;;;;;;;0.90;0.80;;;9.70;97.30;;;;;;5051517;28;20480;-91
2022/09/28 10:19:25;;;;;;;1.00;0.90;;;9.80;97.30;;;;;;4981240;28;20429;-92
2022/09/28 10:21:54;;;;;;;1.00;0.90;;;9.80;97.30;;;;;;5068035;28;20540;-92
2022/09/28 10:25:04;;;;;;;0.90;0.80;;;9.80;97.30;;;;;;5058629;28;20415;-89
2022/09/28 10:28:05;;;;;;;1.07;1.00;;;9.90;97.30;;;;;;4995658;28;20463;-91
2022/09/28 10:31:35;;;;;;;1.03;0.93;;;9.90;97.30;;;;;;5064240;28;20477;-91
2022/09/28 10:34:25;;;;;;;1.00;0.90;;;10.00;97.30;;;;;;4971837;28;20506;-91
2022/09/28 10:57:43;;;;;;;1.03;1.00;;;9.90;97.30;;;;;;837298;22;20822;-91
2022/09/28 11:00:28;;;;;;;1.00;0.90;;;9.90;97.30;;;;;;5070201;28;20491;-91
2022/09/28 11:02:53;;;;;;;1.00;0.90;;;9.80;97.30;;;;;;5070439;28;20950;-92
2022/09/28 11:05:22;;;;;;;1.10;1.00;;;9.70;97.30;;;;;;5069422;28;20437;-91
2022/09/28 11:07:48;;;;;;;1.00;0.90;;;9.60;97.30;;;;;;5069070;28;20288;-91
2022/09/28 11:10:25;;;;;;;0.90;0.80;;;9.60;97.30;;;;;;5056219;28;20912;-91
2022/09/28 11:13:25;;;;;;;0.90;0.80;;;9.60;97.30;;;;;;5069775;28;20182;-90
2022/09/28 11:15:54;;;;;;;1.03;0.90;;;9.60;97.30;;;;;;5061145;28;20962;-91
2022/09/28 11:18:53;;;;;;;1.73;1.20;;;9.50;97.30;;;;;;5065800;28;20575;-92
2022/09/28 11:21:45;;;;;;;1.20;1.10;;;9.50;97.30;;;;;;5078499;28;20432;-90
2022/09/28 11:24:45;;;;;;;1.10;1.10;;;9.60;97.30;;;;;;5081063;28;20508;-90
2022/09/28 11:27:35;;;;;;;1.20;1.10;;;9.60;97.30;;;;;;5032913;28;20478;-89
2022/09/28 11:30:04;;;;;;;1.00;0.90;;;9.60;97.30;;;;;;5020141;28;20466;-92
2022/09/28 11:33:18;;;;;;;1.10;1.00;;;9.60;97.30;;;;;;5031359;28;20464;-91
2022/09/28 11:36:25;;;;;;;2.50;1.20;;;9.60;97.30;;;;;;5040149;28;20446;-91
2022/09/28 11:39:31;;;;;;;1.00;0.90;;;9.60;97.30;;;;;;5071285;28;20417;-90
2022/09/28 11:49:56;;;;;;;1.10;1.00;;;9.70;97.30;;;;;;4989751;28;20413;-90
2022/09/28 11:53:25;;;;;;;1.30;1.20;;;9.90;97.30;;;;;;4954584;29;20423;-92
2022/09/28 12:07:12;;;;;;;2.33;1.33;;;10.20;97.30;;;;;;5030220;28;20518;-91
2022/09/28 12:10:10;;;;;;;1.17;1.07;;;10.20;97.30;;;;;;5033305;28;20411;-91
2022/09/28 12:12:46;;;;;;;1.23;1.13;;;10.30;97.30;;;;;;4976395;28;20477;-90
2022/09/28 12:17:51;;;;;;;1.20;1.10;;;10.30;97.30;;;;;;4980908;28;20991;-91
2022/09/28 12:26:35;;;;;;;1.27;1.20;;;10.40;97.30;;;;;;4992294;28;20992;-91
2022/09/28 12:29:11;;;;;;;1.97;1.87;;;10.40;97.30;;;;;;4993388;28;20515;-91
2022/09/28 12:31:50;;;;;;;1.43;1.23;;;10.40;97.30;;;;;;4982964;28;20444;-91
2022/09/28 12:34:15;;;;;;;1.70;1.60;;;10.50;97.30;;;;;;4993090;28;20421;-92
2022/09/28 12:37:21;;;;;;;1.60;1.50;;;10.50;97.30;;;;;;4993005;28;20951;-91
2022/09/28 12:40:07;;;;;;;1.40;1.30;;;10.60;97.30;;;;;;4981032;28;20181;-93
2022/09/28 12:42:54;;;;;;;1.97;1.43;;;10.60;97.30;;;;;;4996546;28;20431;-91
2022/09/28 12:46:01;;;;;;;2.10;1.40;;;10.70;97.30;;;;;;5000073;28;20451;-93
2022/09/28 12:49:19;;;;;;;1.60;1.50;;;10.60;97.30;;;;;;4997617;28;20486;-91
2022/09/28 12:51:53;;;;;;;1.00;0.90;;;10.60;97.30;;;;;;4957042;28;20493;-92
2022/09/28 12:54:33;;;;;;;1.37;1.07;;;10.60;97.30;;;;;;4981184;28;20431;-91
2022/09/28 12:57:29;;;;;;;1.63;1.30;;;10.60;97.30;;;;;;4992944;28;20491;-91
2022/09/28 13:00:03;;;;;;;2.53;2.20;;;10.60;97.30;;;;;;4994577;28;20413;-94
2022/09/28 13:02:58;;;;;;;1.43;1.37;;;10.60;97.30;;;;;;4981777;28;20425;-93
2022/09/28 13:05:40;;;;;;;1.33;1.23;;;10.60;97.30;;;;;;4993799;28;20449;-92
2022/09/28 13:08:40;;;;;;;1.37;1.10;;;10.60;97.30;;;;;;4999017;28;20469;-90
2022/09/28 13:11:32;;;;;;;2.27;1.50;;;10.50;97.30;;;;;;4993609;28;20428;-93
2022/09/28 13:14:26;;;;;;;1.77;1.57;;;10.40;97.30;;;;;;4983679;28;20417;-91
2022/09/28 13:17:20;;;;;;;1.23;1.13;;;10.40;97.30;;;;;;5006896;28;20468;-92
2022/09/28 13:20:24;;;;;;;1.63;1.53;;;10.40;97.30;;;;;;5012734;28;20424;-93
2022/09/28 13:23:19;;;;;;;1.10;1.00;;;10.40;97.30;;;;;;5018296;28;20979;-96
2022/09/28 13:26:13;;;;;;;1.57;1.47;;;10.30;97.30;;;;;;5025128;28;20447;-92
2022/09/28 13:28:41;;;;;;;1.10;1.00;;;10.30;97.30;;;;;;5003229;28;20416;-92
2022/09/28 13:31:07;;;;;;;1.40;1.30;;;10.40;97.30;;;;;;5012800;28;20793;-92
2022/09/28 13:33:39;;;;;;;1.20;1.10;;;10.70;97.30;;;;;;5012571;28;20424;-92
2022/09/28 13:36:35;;;;;;;2.60;1.50;;;11.00;97.30;;;;;;5012063;28;21000;-91
2022/09/28 13:39:00;;;;;;;1.10;1.00;;;11.10;97.30;;;;;;5011894;28;20412;-90
2022/09/28 13:41:32;;;;;;;0.90;0.90;;;11.10;97.30;;;;;;5019725;28;20476;-92
2022/09/28 13:44:09;;;;;;;1.23;1.13;;;11.20;97.30;;;;;;5029968;28;20185;-92
2022/09/28 13:46:48;;;;;;;1.27;1.20;;;11.20;97.30;;;;;;5011743;28;20546;-92
2022/09/28 13:49:20;;;;;;;2.03;1.47;;;11.20;97.30;;;;;;5012139;28;20489;-91
2022/09/28 13:51:51;;;;;;;1.10;1.00;;;11.20;97.30;;;;;;5013370;28;20791;-92
2022/09/28 13:54:29;;;;;;;1.30;1.17;;;11.00;97.30;;;;;;5025110;28;20420;-92
2022/09/28 13:57:09;;;;;;;1.17;1.13;;;10.90;97.30;;;;;;5025087;28;20439;-91
2022/09/28 14:00:02;;;;;;;0.80;0.80;;;10.90;97.30;;;;;;5011265;28;20420;-91
2022/09/28 14:02:38;;;;;;;1.53;1.47;;;10.80;97.30;;;;;;4989022;28;20478;-92
2022/09/28 14:05:33;;;;;;;1.37;1.10;;;10.90;97.30;;;;;;5010610;28;20645;-93
2022/09/28 14:08:07;;;;;;;1.60;1.50;;;10.90;97.30;;;;;;5011038;28;20499;-90
2022/09/28 14:10:50;;;;;;;2.03;1.47;;;10.90;97.30;;;;;;5024027;28;20422;-92
2022/09/28 14:13:41;;;;;;;1.97;1.47;;;11.00;97.30;;;;;;5010259;28;20955;-92
2022/09/28 14:16:21;;;;;;;1.10;1.03;;;11.20;97.30;;;;;;5012240;28;20566;-92
2022/09/28 14:18:59;;;;;;;1.53;1.47;;;11.70;97.30;;;;;;5027762;28;20427;-92
2022/09/28 14:22:04;;;;;;;3.47;1.87;;;12.00;97.30;;;;;;5014675;28;21167;-92
2022/09/28 14:24:37;;;;;;;0.80;0.80;;;12.50;97.30;;;;;;5010454;28;20423;-92
2022/09/28 14:27:03;;;;;;;1.20;1.10;;;12.80;97.30;;;;;;5010934;28;20471;-92
2022/09/28 14:29:32;;;;;;;1.00;0.90;;;12.80;97.30;;;;;;5011871;28;20412;-92
2022/09/28 14:32:09;;;;;;;1.20;1.10;;;12.70;97.30;;;;;;5010744;28;20181;-93
2022/09/28 14:34:39;;;;;;;2.73;1.20;;;12.50;97.30;;;;;;5011253;28;20431;-92
2022/09/28 14:43:36;;;;;;;;;;;;;;;;;;;;;
2022/09/28 14:49:53;;;;;;;;;;;;;;;;;;;;;
2022/09/28 14:53:15;;;;;;;0.97;0.97;;;13.90;97.30;;;;;;5000786;28;20416;-92